createdAt,value
2022-09-07T00:01:08.742Z,59.10
2022-09-07T00:03:36.887Z,58.73
2022-09-07T00:06:07.896Z,58.95
2022-09-07T00:08:36.906Z,59.14
2022-09-07T00:11:07.692Z,59.16
2022-09-07T00:13:38.355Z,59.22
2022-09-07T00:16:08.873Z,59.26
2022-09-07T00:18:37.236Z,59.22
2022-09-07T00:21:08.714Z,59.62
2022-09-07T00:23:38.714Z,59.95
2022-09-07T00:26:12.821Z,59.91
2022-09-07T00:28:41.924Z,59.82
2022-09-07T00:31:12.774Z,59.89
2022-09-07T00:33:42.113Z,60.10
2022-09-07T00:36:10.184Z,60.11
2022-09-07T00:38:38.273Z,59.99
2022-09-07T00:41:06.442Z,60.07
2022-09-07T00:43:47.122Z,60.13
2022-09-07T00:46:24.491Z,60.06
2022-09-07T00:49:10.606Z,60.03
2022-09-07T00:51:47.608Z,60.25
2022-09-07T00:54:20.877Z,60.45
2022-09-07T00:56:50.894Z,60.33
2022-09-07T00:59:24.106Z,60.45
2022-09-07T01:01:52.476Z,60.68
2022-09-07T01:04:22.294Z,60.58
2022-09-07T01:06:50.286Z,60.50
2022-09-07T01:09:23.098Z,60.63
2022-09-07T01:11:52.655Z,61.07
2022-09-07T01:14:24.102Z,60.99
2022-09-07T01:17:12.312Z,60.98
2022-09-07T01:19:49.436Z,60.93
2022-09-07T01:22:20.110Z,61.40
2022-09-07T01:25:07.585Z,61.45
2022-09-07T01:27:55.763Z,61.25
2022-09-07T01:30:24.762Z,61.35
2022-09-07T01:32:58.496Z,61.52
2022-09-07T01:35:53.874Z,61.67
2022-09-07T01:38:30.517Z,61.48
2022-09-07T01:41:10.291Z,61.41
2022-09-07T01:43:51.338Z,61.71
2022-09-07T01:46:27.021Z,61.59
2022-09-07T01:49:01.017Z,61.76
2022-09-07T01:51:33.666Z,61.98
2022-09-07T01:54:14.202Z,61.94
2022-09-07T01:56:46.779Z,62.06
2022-09-07T01:59:21.409Z,61.95
2022-09-07T02:01:59.102Z,64.94
2022-09-07T02:04:36.405Z,64.72
2022-09-07T02:07:15.915Z,57.96
2022-09-07T02:09:52.259Z,54.38
2022-09-07T02:12:44.143Z,53.94
2022-09-07T02:15:21.087Z,54.54
2022-09-07T02:17:54.496Z,55.00
2022-09-07T02:20:27.040Z,55.50
2022-09-07T02:23:00.213Z,56.02
2022-09-07T02:25:37.895Z,56.44
2022-09-07T02:28:12.399Z,56.88
2022-09-07T02:30:40.312Z,57.44
2022-09-07T02:33:08.694Z,57.94
2022-09-07T02:35:36.822Z,58.15
2022-09-07T02:38:06.791Z,58.83
2022-09-07T02:40:35.165Z,59.01
2022-09-07T02:43:06.749Z,59.54
2022-09-07T02:46:09.920Z,59.46
2022-09-07T02:48:58.154Z,59.66
2022-09-07T02:51:39.027Z,60.01
2022-09-07T02:54:19.645Z,60.41
2022-09-07T02:57:16.527Z,60.53
2022-09-07T03:00:07.556Z,60.77
2022-09-07T03:03:03.800Z,60.90
2022-09-07T03:05:43.053Z,61.30
2022-09-07T03:08:12.861Z,61.68
2022-09-07T03:10:42.648Z,65.16
2022-09-07T03:13:23.839Z,65.23
2022-09-07T03:15:55.753Z,58.35
2022-09-07T03:18:26.187Z,54.37
2022-09-07T03:20:54.943Z,54.27
2022-09-07T03:23:23.622Z,54.60
2022-09-07T03:25:51.336Z,55.33
2022-09-07T03:28:19.093Z,55.88
2022-09-07T03:30:49.822Z,56.49
2022-09-07T03:33:17.834Z,57.12
2022-09-07T03:35:56.722Z,57.69
2022-09-07T03:38:24.724Z,58.29
2022-09-07T03:41:04.268Z,58.97
2022-09-07T03:43:33.327Z,59.34
2022-09-07T03:46:05.141Z,59.67
2022-09-07T03:48:34.957Z,60.08
2022-09-07T03:51:11.109Z,60.34
2022-09-07T03:53:41.012Z,60.85
2022-09-07T03:56:16.354Z,60.97
2022-09-07T03:58:45.556Z,61.15
2022-09-07T04:01:17.165Z,61.34
2022-09-07T04:03:46.126Z,61.60
2022-09-07T04:06:14.894Z,61.85
2022-09-07T04:08:43.730Z,65.15
2022-09-07T04:11:17.500Z,65.52
2022-09-07T04:13:46.367Z,57.94
2022-09-07T04:16:19.532Z,53.15
2022-09-07T04:18:50.346Z,53.51
2022-09-07T04:21:18.700Z,54.23
2022-09-07T04:23:46.976Z,54.66
2022-09-07T04:26:20.083Z,55.39
2022-09-07T04:28:48.027Z,56.04
2022-09-07T04:31:17.641Z,56.66
2022-09-07T04:33:46.826Z,57.23
2022-09-07T04:36:16.462Z,57.93
2022-09-07T04:38:44.805Z,58.23
2022-09-07T04:41:18.138Z,58.83
2022-09-07T04:43:46.706Z,59.10
2022-09-07T04:46:21.910Z,59.43
2022-09-07T04:48:54.207Z,59.95
2022-09-07T04:51:23.274Z,59.92
2022-09-07T04:53:54.157Z,60.20
2022-09-07T04:56:23.272Z,60.58
2022-09-07T04:58:51.423Z,60.78
2022-09-07T05:01:21.720Z,60.97
2022-09-07T05:03:50.211Z,60.84
2022-09-07T05:06:20.599Z,60.95
2022-09-07T05:08:53.688Z,60.90
2022-09-07T05:11:27.926Z,60.74
2022-09-07T05:13:59.339Z,60.27
2022-09-07T05:16:28.095Z,60.26
2022-09-07T05:18:59.390Z,59.88
2022-09-07T05:21:30.326Z,59.55
2022-09-07T05:23:59.877Z,59.28
2022-09-07T05:26:30.121Z,59.15
2022-09-07T05:31:50.419Z,58.99
2022-09-07T05:34:33.736Z,59.14
2022-09-07T05:37:02.401Z,58.98
2022-09-07T05:39:32.056Z,59.09
2022-09-07T05:41:59.966Z,59.10
2022-09-07T05:47:11.651Z,58.89
2022-09-07T05:49:40.099Z,58.73
2022-09-07T05:52:08.169Z,58.72
2022-09-07T05:54:36.025Z,58.84
2022-09-07T05:57:04.429Z,58.74
2022-09-07T05:59:32.258Z,58.91
2022-09-07T06:02:00.401Z,58.97
2022-09-07T06:04:28.262Z,58.78
2022-09-07T06:07:21.686Z,58.78
2022-09-07T06:12:32.054Z,58.75
2022-09-07T06:15:01.628Z,58.36
2022-09-07T06:17:29.995Z,58.43
2022-09-07T06:19:57.843Z,57.77
2022-09-07T06:22:30.106Z,57.26
2022-09-07T06:24:59.003Z,57.27
2022-09-07T06:27:27.516Z,57.13
2022-09-07T06:29:55.763Z,56.85
2022-09-07T06:35:12.906Z,56.85
2022-09-07T06:37:41.425Z,56.71
2022-09-07T06:40:12.114Z,56.59
2022-09-07T06:42:40.391Z,56.26
2022-09-07T06:45:11.428Z,56.21
2022-09-07T06:47:39.994Z,56.05
2022-09-07T06:50:08.775Z,54.82
2022-09-07T06:55:28.049Z,51.97
2022-09-07T06:57:55.924Z,50.29
2022-09-07T07:00:23.792Z,48.91
2022-09-07T07:02:51.787Z,47.63
2022-09-07T07:05:19.678Z,46.22
2022-09-07T07:07:47.463Z,45.26
2022-09-07T07:10:15.638Z,43.85
2022-09-07T07:15:10.981Z,42.90
2022-09-07T07:17:38.735Z,42.05
2022-09-07T07:20:07.562Z,41.91
2022-09-07T07:22:50.720Z,41.57
2022-09-07T07:25:19.454Z,42.06
2022-09-07T07:27:48.693Z,42.45
2022-09-07T07:30:18.304Z,43.15
2022-09-07T07:32:47.012Z,43.62
2022-09-07T07:35:15.346Z,43.81
2022-09-07T07:37:43.577Z,44.40
2022-09-07T07:42:46.168Z,45.38
2022-09-07T07:48:02.855Z,46.19
2022-09-07T07:50:31.789Z,46.63
2022-09-07T07:55:48.944Z,47.54
2022-09-07T07:58:17.079Z,47.94
2022-09-07T08:01:00.441Z,48.19
2022-09-07T08:03:28.842Z,48.27
2022-09-07T08:05:57.025Z,48.53
2022-09-07T08:08:24.998Z,48.53
2022-09-07T08:10:53.100Z,48.53
2022-09-07T08:13:21.647Z,48.79
2022-09-07T08:15:49.573Z,48.71
2022-09-07T08:18:18.188Z,48.98
2022-09-07T08:20:45.949Z,49.00
2022-09-07T08:23:14.766Z,49.02
2022-09-07T08:25:53.396Z,49.15
2022-09-07T08:28:23.499Z,49.25
2022-09-07T08:30:51.312Z,49.33
2022-09-07T08:33:19.254Z,49.53
2022-09-07T08:36:00.467Z,49.29
2022-09-07T08:38:33.258Z,49.17
2022-09-07T08:41:02.586Z,49.51
2022-09-07T08:43:50.190Z,49.52
2022-09-07T08:46:51.598Z,49.54
2022-09-07T08:49:30.263Z,49.48
2022-09-07T08:52:05.463Z,49.58
2022-09-07T08:54:33.303Z,49.47
2022-09-07T09:00:05.099Z,49.34
2022-09-07T09:02:42.018Z,49.35
2022-09-07T09:05:33.101Z,49.02
2022-09-07T09:08:10.917Z,48.88
2022-09-07T09:10:38.682Z,48.48
2022-09-07T09:13:18.802Z,48.16
2022-09-07T09:15:57.019Z,48.11
2022-09-07T09:18:24.717Z,47.99
2022-09-07T09:20:55.656Z,47.68
2022-09-07T09:23:31.300Z,47.23
2022-09-07T09:26:04.553Z,46.88
2022-09-07T09:28:32.625Z,46.90
2022-09-07T09:31:00.723Z,46.81
2022-09-07T09:33:29.147Z,46.47
2022-09-07T09:36:00.188Z,46.83
2022-09-07T09:38:43.620Z,46.59
2022-09-07T09:41:15.935Z,46.80
2022-09-07T09:43:48.946Z,46.54
2022-09-07T09:46:28.487Z,46.21
2022-09-07T09:48:59.699Z,45.95
2022-09-07T09:54:44.837Z,45.17
2022-09-07T09:57:17.383Z,44.86
2022-09-07T10:00:05.539Z,44.33
2022-09-07T10:05:38.589Z,44.38
2022-09-07T10:08:16.944Z,44.60
2022-09-07T10:11:15.548Z,44.49
2022-09-07T10:13:56.015Z,44.15
2022-09-07T10:16:41.576Z,43.90
2022-09-07T10:19:23.637Z,43.67
2022-09-07T10:21:57.420Z,43.79
2022-09-07T10:24:27.817Z,43.72
2022-09-07T10:26:55.558Z,43.42
2022-09-07T10:29:36.463Z,43.53
2022-09-07T10:32:33.133Z,43.52
2022-09-07T10:35:27.837Z,43.46
2022-09-07T10:38:18.722Z,42.64
2022-09-07T10:41:07.368Z,42.22
2022-09-07T10:43:47.321Z,42.16
2022-09-07T10:49:38.248Z,41.95
2022-09-07T10:52:09.190Z,42.00
2022-09-07T10:55:07.765Z,42.17
2022-09-07T10:57:49.120Z,42.28
2022-09-07T11:00:20.325Z,42.06
2022-09-07T11:03:27.097Z,41.74
2022-09-07T11:06:33.299Z,41.94
2022-09-07T11:09:16.903Z,41.74
2022-09-07T11:12:03.017Z,41.60
2022-09-07T11:14:43.962Z,41.34
2022-09-07T11:17:18.912Z,40.93
2022-09-07T11:19:54.817Z,40.79
2022-09-07T11:22:28.139Z,40.85
2022-09-07T11:25:36.870Z,40.57
2022-09-07T11:28:12.914Z,40.81
2022-09-07T11:30:46.750Z,40.78
2022-09-07T11:33:36.473Z,40.92
2022-09-07T11:36:16.337Z,41.02
2022-09-07T11:38:59.782Z,41.13
2022-09-07T11:41:30.844Z,40.70
2022-09-07T11:44:27.807Z,40.35
2022-09-07T11:47:03.544Z,40.41
2022-09-07T11:49:31.335Z,40.58
2022-09-07T11:52:05.642Z,39.90
2022-09-07T11:54:36.466Z,39.77
2022-09-07T11:57:42.549Z,39.75
2022-09-07T12:00:19.265Z,39.92
2022-09-07T12:02:59.786Z,39.64
2022-09-07T12:06:10.438Z,39.77
2022-09-07T12:08:38.171Z,39.50
2022-09-07T12:11:24.563Z,39.71
2022-09-07T12:13:55.017Z,39.55
2022-09-07T12:16:28.940Z,39.67
2022-09-07T12:19:02.830Z,39.30
2022-09-07T12:21:36.470Z,39.50
2022-09-07T12:24:05.030Z,39.29
2022-09-07T12:26:32.734Z,39.65
2022-09-07T12:29:00.436Z,39.54
2022-09-07T12:31:57.566Z,39.46
2022-09-07T12:34:32.267Z,39.35
2022-09-07T12:37:12.399Z,39.41
2022-09-07T12:39:43.923Z,39.36
2022-09-07T12:45:28.796Z,39.29
2022-09-07T12:47:59.068Z,39.64
2022-09-07T12:50:59.930Z,39.44
2022-09-07T12:53:40.691Z,39.48
2022-09-07T12:56:18.361Z,39.38
2022-09-07T12:59:02.320Z,39.22
2022-09-07T13:01:48.835Z,39.34
2022-09-07T13:04:54.885Z,39.23
2022-09-07T13:08:07.229Z,39.22
2022-09-07T13:10:39.659Z,39.44
2022-09-07T13:16:17.781Z,39.45
2022-09-07T13:18:47.046Z,39.46
2022-09-07T13:21:17.521Z,39.56
2022-09-07T13:27:25.073Z,39.48
2022-09-07T13:29:52.755Z,39.15
2022-09-07T13:35:25.519Z,39.29
2022-09-07T13:38:00.736Z,39.28
2022-09-07T13:40:31.980Z,39.27
2022-09-07T13:43:01.915Z,39.38
2022-09-07T13:45:29.566Z,39.43
2022-09-07T13:48:10.268Z,39.37
2022-09-07T13:50:50.548Z,39.37
2022-09-07T13:53:33.345Z,39.34
2022-09-07T13:56:21.660Z,39.19
2022-09-07T13:58:52.554Z,39.35
2022-09-07T14:01:23.604Z,39.50
2022-09-07T14:03:57.090Z,39.41
2022-09-07T14:06:33.722Z,39.64
2022-09-07T14:09:07.077Z,39.58
2022-09-07T14:11:49.729Z,39.77
2022-09-07T14:14:29.588Z,39.83
2022-09-07T14:17:04.719Z,39.56
2022-09-07T14:19:39.872Z,39.39
2022-09-07T14:22:28.867Z,39.44
2022-09-07T14:24:59.452Z,39.39
2022-09-07T14:27:42.124Z,39.36
2022-09-07T14:30:28.683Z,39.53
2022-09-07T14:33:06.272Z,39.56
2022-09-07T14:35:37.740Z,39.50
2022-09-07T14:41:18.888Z,39.60
2022-09-07T14:43:55.727Z,39.69
2022-09-07T14:46:27.240Z,39.86
2022-09-07T14:49:00.655Z,39.89
2022-09-07T14:51:36.128Z,39.63
2022-09-07T14:54:07.417Z,39.77
2022-09-07T14:56:38.203Z,39.95
2022-09-07T14:59:30.943Z,40.16
2022-09-07T15:02:28.362Z,40.14
2022-09-07T15:05:14.622Z,40.08
2022-09-07T15:07:48.857Z,40.18
2022-09-07T15:10:23.668Z,40.36
2022-09-07T15:12:55.079Z,40.10
2022-09-07T15:15:26.928Z,40.39
2022-09-07T15:18:01.856Z,40.33
2022-09-07T15:20:38.534Z,40.27
2022-09-07T15:23:12.247Z,40.14
2022-09-07T15:25:45.317Z,40.30
2022-09-07T15:34:11.610Z,40.31
2022-09-07T15:36:42.668Z,40.32
2022-09-07T15:39:22.569Z,40.56
2022-09-07T15:41:51.625Z,40.54
2022-09-07T15:44:24.980Z,40.68
2022-09-07T15:49:49.161Z,40.86
2022-09-07T15:52:18.317Z,40.90
2022-09-07T15:54:46.800Z,40.87
2022-09-07T16:00:04.405Z,40.75
2022-09-07T16:05:20.197Z,40.83
2022-09-07T16:10:35.976Z,40.98
2022-09-07T16:13:16.169Z,40.95
2022-09-07T16:15:46.686Z,41.00
2022-09-07T16:18:17.090Z,41.04
2022-09-07T16:20:45.953Z,41.00
2022-09-07T16:23:16.163Z,41.06
2022-09-07T16:25:59.602Z,41.11
2022-09-07T16:28:28.363Z,41.18
2022-09-07T16:30:57.418Z,41.22
2022-09-07T16:33:33.135Z,41.36
2022-09-07T16:36:11.586Z,41.46
2022-09-07T16:38:44.255Z,41.57
2022-09-07T16:41:26.571Z,41.66
2022-09-07T16:43:54.812Z,41.74
2022-09-07T16:46:26.801Z,41.70
2022-09-07T16:48:55.162Z,41.86
2022-09-07T16:51:24.408Z,41.81
2022-09-07T16:53:54.944Z,42.00
2022-09-07T16:56:24.600Z,42.17
2022-09-07T16:58:56.257Z,42.22
2022-09-07T17:01:27.028Z,42.33
2022-09-07T17:03:55.358Z,42.49
2022-09-07T17:06:25.909Z,42.65
2022-09-07T17:08:54.698Z,42.68
2022-09-07T17:11:25.391Z,42.82
2022-09-07T17:13:54.146Z,42.95
2022-09-07T17:16:24.592Z,43.01
2022-09-07T17:21:41.920Z,43.22
2022-09-07T17:24:11.171Z,43.35
2022-09-07T17:26:42.335Z,43.32
2022-09-07T17:29:13.111Z,43.47
2022-09-07T17:34:30.671Z,43.50
2022-09-07T17:37:00.573Z,43.64
2022-09-07T17:39:29.389Z,43.70
2022-09-07T17:41:57.792Z,43.67
2022-09-07T17:44:25.717Z,43.66
2022-09-07T17:46:53.484Z,43.68
2022-09-07T17:49:21.355Z,43.68
2022-09-07T17:51:51.284Z,43.73
2022-09-07T17:54:19.165Z,43.76
2022-09-07T17:56:47.019Z,43.80
2022-09-07T18:02:02.998Z,43.82
2022-09-07T18:04:30.945Z,43.86
2022-09-07T18:06:58.795Z,43.86
2022-09-07T18:09:26.536Z,43.94
2022-09-07T18:11:54.431Z,43.97
2022-09-07T18:14:22.310Z,44.06
2022-09-07T18:16:51.037Z,44.10
2022-09-07T18:19:19.144Z,44.16
2022-09-07T18:21:48.089Z,44.19
2022-09-07T18:24:19.921Z,44.28
2022-09-07T18:26:51.184Z,44.39
2022-09-07T18:29:32.911Z,44.40
2022-09-07T18:32:07.366Z,44.45
2022-09-07T18:34:38.280Z,44.57
2022-09-07T18:37:07.114Z,44.66
2022-09-07T18:39:35.733Z,44.72
2022-09-07T18:42:04.111Z,44.77
2022-09-07T18:47:27.950Z,44.86
2022-09-07T18:49:57.650Z,44.98
2022-09-07T18:55:13.867Z,45.01
2022-09-07T18:57:42.253Z,45.23
2022-09-07T19:00:12.088Z,45.26
2022-09-07T19:02:39.904Z,45.29
2022-09-07T19:07:56.569Z,45.39
2022-09-07T19:10:24.386Z,45.51
2022-09-07T19:12:52.116Z,45.48
2022-09-07T19:15:20.719Z,45.51
2022-09-07T19:17:48.542Z,45.56
2022-09-07T19:20:17.559Z,45.61
2022-09-07T19:22:45.572Z,45.76
2022-09-07T19:25:13.347Z,45.80
2022-09-07T19:27:41.113Z,45.86
2022-09-07T19:30:09.622Z,45.92
2022-09-07T19:32:37.366Z,45.95
2022-09-07T19:35:05.445Z,46.03
2022-09-07T19:37:33.576Z,46.05
2022-09-07T19:40:02.053Z,46.14
2022-09-07T19:42:30.067Z,46.19
2022-09-07T19:44:57.977Z,46.26
2022-09-07T19:47:25.771Z,46.35
2022-09-07T19:49:53.604Z,46.41
2022-09-07T19:52:21.403Z,46.44
2022-09-07T19:54:49.365Z,46.48
2022-09-07T19:57:17.222Z,46.51
2022-09-07T19:59:45.720Z,46.53
2022-09-07T20:02:13.689Z,46.59
2022-09-07T20:04:41.477Z,46.68
2022-09-07T20:07:09.210Z,46.64
2022-09-07T20:09:37.338Z,46.65
2022-09-07T20:12:07.994Z,46.66
2022-09-07T20:14:36.031Z,46.72
2022-09-07T20:17:04.105Z,46.78
2022-09-07T20:19:31.865Z,46.79
2022-09-07T20:21:59.701Z,46.81
2022-09-07T20:24:27.844Z,46.88
2022-09-07T20:26:55.517Z,46.89
2022-09-07T20:29:27.913Z,46.92
2022-09-07T20:31:58.738Z,46.99
2022-09-07T20:34:27.799Z,47.03
2022-09-07T20:36:56.807Z,47.06
2022-09-07T20:39:25.512Z,47.10
2022-09-07T20:41:53.260Z,47.18
2022-09-07T20:44:21.004Z,47.29
2022-09-07T20:46:48.955Z,47.44
2022-09-07T20:49:17.016Z,47.46
2022-09-07T20:51:44.761Z,47.51
2022-09-07T20:54:12.589Z,47.60
2022-09-07T20:56:40.381Z,47.65
2022-09-07T20:59:08.568Z,47.66
2022-09-07T21:01:36.702Z,47.74
2022-09-07T21:04:06.301Z,47.80
2022-09-07T21:06:34.176Z,47.82
2022-09-07T21:09:02.172Z,47.90
2022-09-07T21:11:33.236Z,47.94
2022-09-07T21:14:06.288Z,47.98
2022-09-07T21:16:37.383Z,48.01
2022-09-07T21:19:07.305Z,48.09
2022-09-07T21:21:39.104Z,48.25
2022-09-07T21:24:19.194Z,48.30
2022-09-07T21:26:48.339Z,48.25
2022-09-07T21:29:22.976Z,48.32
2022-09-07T21:31:53.444Z,48.36
2022-09-07T21:34:22.200Z,48.40
2022-09-07T21:36:50.617Z,48.49
2022-09-07T21:39:19.312Z,48.51
2022-09-07T21:41:47.144Z,48.58
2022-09-07T21:44:16.195Z,48.62
2022-09-07T21:46:44.612Z,48.65
2022-09-07T21:49:12.424Z,48.68
2022-09-07T21:51:40.471Z,48.79
2022-09-07T21:54:08.818Z,48.77
2022-09-07T21:56:36.674Z,48.85
2022-09-07T21:59:05.225Z,48.94
2022-09-07T22:01:33.244Z,49.01
2022-09-07T22:04:03.935Z,48.99
2022-09-07T22:06:32.630Z,49.04
2022-09-07T22:09:01.251Z,49.10
2022-09-07T22:11:30.410Z,49.21
2022-09-07T22:14:03.515Z,49.29
2022-09-07T22:16:33.043Z,49.34
2022-09-07T22:19:01.365Z,49.57
2022-09-07T22:21:30.355Z,49.49
2022-09-07T22:24:00.889Z,49.65
2022-09-07T22:26:31.272Z,49.75
2022-09-07T22:29:00.128Z,49.90
2022-09-07T22:31:31.929Z,49.81
2022-09-07T22:34:01.954Z,49.92
2022-09-07T22:36:35.232Z,49.93
2022-09-07T22:39:05.598Z,49.94
2022-09-07T22:41:35.620Z,50.04
2022-09-07T22:44:04.226Z,50.19
2022-09-07T22:46:37.334Z,50.19
2022-09-07T22:49:06.895Z,50.26
2022-09-07T22:51:35.055Z,50.34
2022-09-07T22:54:03.474Z,50.37
2022-09-07T22:56:33.353Z,50.51
2022-09-07T22:59:04.309Z,50.55
2022-09-07T23:01:32.516Z,50.50
2022-09-07T23:04:00.720Z,50.61
2022-09-07T23:06:32.715Z,50.65
2022-09-07T23:09:04.078Z,50.67
2022-09-07T23:11:31.861Z,50.72
2022-09-07T23:14:02.811Z,50.78
2022-09-07T23:16:31.177Z,50.84
2022-09-07T23:19:00.318Z,50.98
2022-09-07T23:21:28.750Z,51.03
2022-09-07T23:23:59.796Z,51.04
2022-09-07T23:26:30.220Z,51.03
2022-09-07T23:29:00.383Z,51.06
2022-09-07T23:31:29.749Z,51.15
2022-09-07T23:33:57.979Z,51.25
2022-09-07T23:36:26.393Z,51.21
2022-09-07T23:38:56.280Z,51.35
2022-09-07T23:41:25.129Z,51.40
2022-09-07T23:43:54.425Z,51.33
2022-09-07T23:46:22.256Z,51.44
2022-09-07T23:48:50.544Z,51.40
2022-09-07T23:51:23.393Z,51.42
2022-09-07T23:53:52.700Z,51.40
2022-09-07T23:56:21.141Z,51.47
2022-09-07T23:58:49.205Z,51.51
